sensor_id;sensor_type;location;lat;lon;timestamp;pressure;altitude;pressure_sealevel;temperature;humidity
75086;BME280;63663;0.000;0.000;2022-11-25T00:00:47;100538.38;;;10.86;54.93
75086;BME280;63663;0.000;0.000;2022-11-25T00:03:12;100530.50;;;10.84;55.77
75086;BME280;63663;0.000;0.000;2022-11-25T00:05:38;100526.97;;;10.84;54.72
75086;BME280;63663;0.000;0.000;2022-11-25T00:08:03;100532.91;;;10.86;54.83
75086;BME280;63663;0.000;0.000;2022-11-25T00:10:28;100532.09;;;10.85;54.78
75086;BME280;63663;0.000;0.000;2022-11-25T00:12:53;100523.66;;;10.87;54.39
75086;BME280;63663;0.000;0.000;2022-11-25T00:15:18;100524.75;;;10.86;54.67
75086;BME280;63663;0.000;0.000;2022-11-25T00:17:44;100514.69;;;10.86;55.27
75086;BME280;63663;0.000;0.000;2022-11-25T00:20:09;100513.34;;;10.79;55.07
75086;BME280;63663;0.000;0.000;2022-11-25T00:22:34;100510.91;;;10.82;55.25
75086;BME280;63663;0.000;0.000;2022-11-25T00:24:59;100513.34;;;10.84;54.90
75086;BME280;63663;0.000;0.000;2022-11-25T00:27:24;100510.63;;;10.79;55.07
75086;BME280;63663;0.000;0.000;2022-11-25T00:29:50;100513.88;;;10.81;55.75
75086;BME280;63663;0.000;0.000;2022-11-25T00:32:15;100501.38;;;10.80;54.92
75086;BME280;63663;0.000;0.000;2022-11-25T00:34:40;100497.56;;;10.81;55.09
75086;BME280;63663;0.000;0.000;2022-11-25T00:37:05;100492.66;;;10.78;55.33
75086;BME280;63663;0.000;0.000;2022-11-25T00:39:30;100491.84;;;10.77;55.18
75086;BME280;63663;0.000;0.000;2022-11-25T00:41:55;100494.00;;;10.75;54.87
75086;BME280;63663;0.000;0.000;2022-11-25T00:44:20;100490.47;;;10.75;55.73
75086;BME280;63663;0.000;0.000;2022-11-25T00:46:46;100490.47;;;10.75;55.53
75086;BME280;63663;0.000;0.000;2022-11-25T00:49:11;100488.28;;;10.77;55.04
75086;BME280;63663;0.000;0.000;2022-11-25T00:51:36;100478.22;;;10.77;55.72
75086;BME280;63663;0.000;0.000;2022-11-25T00:54:01;100475.22;;;10.79;55.26
75086;BME280;63663;0.000;0.000;2022-11-25T00:56:27;100487.47;;;10.76;55.45
75086;BME280;63663;0.000;0.000;2022-11-25T00:58:52;100486.13;;;10.74;55.47
75086;BME280;63663;0.000;0.000;2022-11-25T01:01:17;100494.59;;;10.72;55.03
75086;BME280;63663;0.000;0.000;2022-11-25T01:03:42;100493.75;;;10.72;55.63
75086;BME280;63663;0.000;0.000;2022-11-25T01:06:09;100488.03;;;10.73;55.49
75086;BME280;63663;0.000;0.000;2022-11-25T01:08:35;100488.31;;;10.72;55.55
75086;BME280;63663;0.000;0.000;2022-11-25T01:11:08;100488.88;;;10.69;55.47
75086;BME280;63663;0.000;0.000;2022-11-25T01:13:34;100491.84;;;10.72;55.93
75086;BME280;63663;0.000;0.000;2022-11-25T01:16:03;100494.31;;;10.69;55.18
75086;BME280;63663;0.000;0.000;2022-11-25T01:18:28;100483.41;;;10.69;55.36
75086;BME280;63663;0.000;0.000;2022-11-25T01:20:53;100482.88;;;10.67;55.31
75086;BME280;63663;0.000;0.000;2022-11-25T01:23:19;100481.78;;;10.68;55.48
75086;BME280;63663;0.000;0.000;2022-11-25T01:25:44;100481.25;;;10.66;55.14
75086;BME280;63663;0.000;0.000;2022-11-25T01:28:09;100474.72;;;10.67;55.65
75086;BME280;63663;0.000;0.000;2022-11-25T01:30:34;100470.06;;;10.62;55.93
75086;BME280;63663;0.000;0.000;2022-11-25T01:32:59;100470.63;;;10.64;55.94
75086;BME280;63663;0.000;0.000;2022-11-25T01:35:24;100468.44;;;10.66;55.62
75086;BME280;63663;0.000;0.000;2022-11-25T01:37:49;100474.44;;;10.63;55.76
75086;BME280;63663;0.000;0.000;2022-11-25T01:40:15;100479.34;;;10.61;55.75
75086;BME280;63663;0.000;0.000;2022-11-25T01:42:44;100475.25;;;10.64;55.87
75086;BME280;63663;0.000;0.000;2022-11-25T01:47:50;100470.91;;;10.58;55.38
75086;BME280;63663;0.000;0.000;2022-11-25T01:50:17;100474.44;;;10.63;55.39
75086;BME280;63663;0.000;0.000;2022-11-25T01:52:45;100485.06;;;10.60;55.37
75086;BME280;63663;0.000;0.000;2022-11-25T01:55:13;100473.63;;;10.58;55.55
75086;BME280;63663;0.000;0.000;2022-11-25T01:57:50;100479.09;;;10.58;55.62
75086;BME280;63663;0.000;0.000;2022-11-25T02:00:18;100480.16;;;10.62;55.98
75086;BME280;63663;0.000;0.000;2022-11-25T02:02:44;100469.56;;;10.55;56.17
75086;BME280;63663;0.000;0.000;2022-11-25T02:07:45;100460.56;;;10.55;55.98
75086;BME280;63663;0.000;0.000;2022-11-25T02:10:15;100464.38;;;10.53;55.78
75086;BME280;63663;0.000;0.000;2022-11-25T02:12:42;100458.94;;;10.53;55.66
75086;BME280;63663;0.000;0.000;2022-11-25T02:15:08;100460.28;;;10.51;55.83
75086;BME280;63663;0.000;0.000;2022-11-25T02:17:33;100459.22;;;10.47;56.31
75086;BME280;63663;0.000;0.000;2022-11-25T02:20:00;100451.03;;;10.52;56.22
75086;BME280;63663;0.000;0.000;2022-11-25T02:22:31;100464.38;;;10.53;56.53
75086;BME280;63663;0.000;0.000;2022-11-25T02:25:00;100452.69;;;10.53;56.62
75086;BME280;63663;0.000;0.000;2022-11-25T02:27:26;100452.13;;;10.56;56.55
75086;BME280;63663;0.000;0.000;2022-11-25T02:29:51;100447.22;;;10.53;56.26
75086;BME280;63663;0.000;0.000;2022-11-25T02:32:19;100451.63;;;10.49;56.22
75086;BME280;63663;0.000;0.000;2022-11-25T02:34:46;100456.50;;;10.47;55.40
75086;BME280;63663;0.000;0.000;2022-11-25T02:37:11;100451.63;;;10.49;56.63
75086;BME280;63663;0.000;0.000;2022-11-25T02:39:37;100455.41;;;10.53;56.24
75086;BME280;63663;0.000;0.000;2022-11-25T02:42:02;100451.63;;;10.49;55.94
75086;BME280;63663;0.000;0.000;2022-11-25T02:44:27;100452.72;;;10.48;56.37
75086;BME280;63663;0.000;0.000;2022-11-25T02:46:53;100448.06;;;10.53;56.68
75086;BME280;63663;0.000;0.000;2022-11-25T02:49:18;100440.97;;;10.52;55.90
75086;BME280;63663;0.000;0.000;2022-11-25T02:51:43;100442.34;;;10.55;56.32
75086;BME280;63663;0.000;0.000;2022-11-25T02:54:09;100446.41;;;10.52;56.40
75086;BME280;63663;0.000;0.000;2022-11-25T02:56:35;100449.72;;;10.49;57.00
75086;BME280;63663;0.000;0.000;2022-11-25T02:59:00;100452.44;;;10.49;56.80
75086;BME280;63663;0.000;0.000;2022-11-25T03:01:26;100452.94;;;10.51;56.36
75086;BME280;63663;0.000;0.000;2022-11-25T03:03:51;100454.59;;;10.47;56.28
75086;BME280;63663;0.000;0.000;2022-11-25T03:06:17;100451.88;;;10.47;56.74
75086;BME280;63663;0.000;0.000;2022-11-25T03:08:42;100449.72;;;10.49;56.84
75086;BME280;63663;0.000;0.000;2022-11-25T03:11:07;100454.59;;;10.47;55.88
75086;BME280;63663;0.000;0.000;2022-11-25T03:13:32;100451.88;;;10.47;57.19
75086;BME280;63663;0.000;0.000;2022-11-25T03:15:57;100444.81;;;10.46;56.45
75086;BME280;63663;0.000;0.000;2022-11-25T03:18:23;100445.09;;;10.45;56.96
75086;BME280;63663;0.000;0.000;2022-11-25T03:20:51;100444.81;;;10.46;57.19
75086;BME280;63663;0.000;0.000;2022-11-25T03:23:16;100445.63;;;10.47;56.92
75086;BME280;63663;0.000;0.000;2022-11-25T03:25:41;100441.00;;;10.42;56.90
75086;BME280;63663;0.000;0.000;2022-11-25T03:28:07;100445.38;;;10.38;57.44
75086;BME280;63663;0.000;0.000;2022-11-25T03:30:32;100440.47;;;10.35;57.07
75086;BME280;63663;0.000;0.000;2022-11-25T03:32:57;100437.72;;;10.40;57.29
75086;BME280;63663;0.000;0.000;2022-11-25T03:35:22;100438.31;;;10.37;57.74
75086;BME280;63663;0.000;0.000;2022-11-25T03:37:47;100441.84;;;10.38;57.03
75086;BME280;63663;0.000;0.000;2022-11-25T03:40:13;100433.09;;;10.41;57.94
75086;BME280;63663;0.000;0.000;2022-11-25T03:42:39;100440.19;;;10.37;57.49
75086;BME280;63663;0.000;0.000;2022-11-25T03:45:04;100436.66;;;10.36;57.55
75086;BME280;63663;0.000;0.000;2022-11-25T03:47:30;100430.13;;;10.37;57.49
75086;BME280;63663;0.000;0.000;2022-11-25T03:49:55;100429.31;;;10.37;57.23
75086;BME280;63663;0.000;0.000;2022-11-25T03:52:20;100430.13;;;10.37;57.74
75086;BME280;63663;0.000;0.000;2022-11-25T03:54:45;100433.66;;;10.43;57.14
75086;BME280;63663;0.000;0.000;2022-11-25T03:57:10;100434.75;;;10.37;58.19
75086;BME280;63663;0.000;0.000;2022-11-25T03:59:36;100424.16;;;10.35;56.88
75086;BME280;63663;0.000;0.000;2022-11-25T04:02:01;100427.41;;;10.37;58.08
75086;BME280;63663;0.000;0.000;2022-11-25T04:04:26;100421.16;;;10.37;57.60
75086;BME280;63663;0.000;0.000;2022-11-25T04:06:51;100425.78;;;10.31;56.98
75086;BME280;63663;0.000;0.000;2022-11-25T04:09:16;100418.97;;;10.34;57.88
75086;BME280;63663;0.000;0.000;2022-11-25T04:11:41;100418.44;;;10.32;57.18
75086;BME280;63663;0.000;0.000;2022-11-25T04:14:07;100419.53;;;10.36;57.55
75086;BME280;63663;0.000;0.000;2022-11-25T04:16:32;100414.09;;;10.36;57.79
75086;BME280;63663;0.000;0.000;2022-11-25T04:18:57;100411.38;;;10.36;57.91
75086;BME280;63663;0.000;0.000;2022-11-25T04:21:22;100409.72;;;10.40;57.71
75086;BME280;63663;0.000;0.000;2022-11-25T04:23:47;100414.91;;;10.36;58.25
75086;BME280;63663;0.000;0.000;2022-11-25T04:26:12;100411.34;;;10.31;57.72
75086;BME280;63663;0.000;0.000;2022-11-25T04:28:38;100411.34;;;10.31;57.91
75086;BME280;63663;0.000;0.000;2022-11-25T04:31:06;100411.91;;;10.28;57.66
75086;BME280;63663;0.000;0.000;2022-11-25T04:33:31;100411.91;;;10.28;57.58
75086;BME280;63663;0.000;0.000;2022-11-25T04:35:56;100412.19;;;10.31;58.10
75086;BME280;63663;0.000;0.000;2022-11-25T04:38:22;100414.63;;;10.33;57.95
75086;BME280;63663;0.000;0.000;2022-11-25T04:40:47;100419.53;;;10.31;58.05
75086;BME280;63663;0.000;0.000;2022-11-25T04:43:12;100423.88;;;10.32;58.42
75086;BME280;63663;0.000;0.000;2022-11-25T04:45:37;100423.88;;;10.32;58.05
75086;BME280;63663;0.000;0.000;2022-11-25T04:48:02;100432.03;;;10.32;57.60
75086;BME280;63663;0.000;0.000;2022-11-25T04:50:28;100432.59;;;10.34;57.95
75086;BME280;63663;0.000;0.000;2022-11-25T04:52:53;100423.06;;;10.31;58.00
75086;BME280;63663;0.000;0.000;2022-11-25T04:55:18;100429.88;;;10.34;57.54
75086;BME280;63663;0.000;0.000;2022-11-25T04:57:43;100430.13;;;10.27;58.25
75086;BME280;63663;0.000;0.000;2022-11-25T05:00:08;100427.94;;;10.29;58.50
75086;BME280;63663;0.000;0.000;2022-11-25T05:02:34;100436.38;;;10.33;58.52
75086;BME280;63663;0.000;0.000;2022-11-25T05:04:59;100428.50;;;10.31;58.75
75086;BME280;63663;0.000;0.000;2022-11-25T05:07:26;100442.63;;;10.28;58.73
75086;BME280;63663;0.000;0.000;2022-11-25T05:09:52;100447.56;;;10.26;58.81
75086;BME280;63663;0.000;0.000;2022-11-25T05:12:19;100449.16;;;10.27;58.10
75086;BME280;63663;0.000;0.000;2022-11-25T05:14:44;100456.25;;;10.23;59.23
75086;BME280;63663;0.000;0.000;2022-11-25T05:17:14;100453.81;;;10.27;58.95
75086;BME280;63663;0.000;0.000;2022-11-25T05:19:40;100452.19;;;10.26;58.98
75086;BME280;63663;0.000;0.000;2022-11-25T05:22:08;100454.06;;;10.30;58.45
75086;BME280;63663;0.000;0.000;2022-11-25T05:24:33;100450.81;;;10.28;58.23
75086;BME280;63663;0.000;0.000;2022-11-25T05:26:58;100453.81;;;10.27;58.19
75086;BME280;63663;0.000;0.000;2022-11-25T05:29:24;100453.25;;;10.30;58.65
75086;BME280;63663;0.000;0.000;2022-11-25T05:31:49;100450.25;;;10.31;58.00
75086;BME280;63663;0.000;0.000;2022-11-25T05:34:14;100454.06;;;10.30;58.87
75086;BME280;63663;0.000;0.000;2022-11-25T05:36:39;100459.78;;;10.34;58.51
75086;BME280;63663;0.000;0.000;2022-11-25T05:39:04;100453.25;;;10.30;58.73
75086;BME280;63663;0.000;0.000;2022-11-25T05:41:29;100451.63;;;10.34;59.02
75086;BME280;63663;0.000;0.000;2022-11-25T05:43:55;100464.13;;;10.30;58.91
75086;BME280;63663;0.000;0.000;2022-11-25T05:46:20;100464.13;;;10.30;58.65
75086;BME280;63663;0.000;0.000;2022-11-25T05:48:45;100457.88;;;10.29;59.21
75086;BME280;63663;0.000;0.000;2022-11-25T05:51:10;100453.28;;;10.25;58.89
75086;BME280;63663;0.000;0.000;2022-11-25T05:53:35;100449.47;;;10.26;59.14
75086;BME280;63663;0.000;0.000;2022-11-25T05:56:02;100454.59;;;10.27;58.74
75086;BME280;63663;0.000;0.000;2022-11-25T05:58:28;100463.59;;;10.28;59.76
75086;BME280;63663;0.000;0.000;2022-11-25T06:00:53;100457.34;;;10.22;59.58
75086;BME280;63663;0.000;0.000;2022-11-25T06:03:22;100456.25;;;10.23;59.62
75086;BME280;63663;0.000;0.000;2022-11-25T06:05:47;100465.50;;;10.27;59.96
75086;BME280;63663;0.000;0.000;2022-11-25T06:08:12;100464.97;;;10.25;59.30
75086;BME280;63663;0.000;0.000;2022-11-25T06:10:38;100463.03;;;10.31;59.38
75086;BME280;63663;0.000;0.000;2022-11-25T06:13:03;100466.88;;;10.25;59.85
75086;BME280;63663;0.000;0.000;2022-11-25T06:15:28;100468.78;;;10.24;59.80
75086;BME280;63663;0.000;0.000;2022-11-25T06:17:54;100466.06;;;10.24;60.06
75086;BME280;63663;0.000;0.000;2022-11-25T06:20:19;100473.66;;;10.27;58.96
75086;BME280;63663;0.000;0.000;2022-11-25T06:22:44;100473.13;;;10.30;59.73
75086;BME280;63663;0.000;0.000;2022-11-25T06:25:09;100478.84;;;10.24;59.95
75086;BME280;63663;0.000;0.000;2022-11-25T06:27:34;100479.91;;;10.28;59.55
75086;BME280;63663;0.000;0.000;2022-11-25T06:30:00;100479.66;;;10.24;59.89
75086;BME280;63663;0.000;0.000;2022-11-25T06:32:25;100478.84;;;10.24;59.46
75086;BME280;63663;0.000;0.000;2022-11-25T06:34:50;100484.53;;;10.27;59.32
75086;BME280;63663;0.000;0.000;2022-11-25T06:37:15;100487.53;;;10.21;59.62
75086;BME280;63663;0.000;0.000;2022-11-25T06:39:40;100481.81;;;10.22;60.19
75086;BME280;63663;0.000;0.000;2022-11-25T06:42:05;100492.44;;;10.24;59.69
75086;BME280;63663;0.000;0.000;2022-11-25T06:44:31;100485.09;;;10.24;60.05
75086;BME280;63663;0.000;0.000;2022-11-25T06:46:56;100485.66;;;10.26;60.32
75086;BME280;63663;0.000;0.000;2022-11-25T06:49:21;100491.34;;;10.25;59.67
75086;BME280;63663;0.000;0.000;2022-11-25T06:51:47;100483.19;;;10.30;59.85
75086;BME280;63663;0.000;0.000;2022-11-25T06:54:13;100482.91;;;10.31;59.90
75086;BME280;63663;0.000;0.000;2022-11-25T06:56:38;100484.00;;;10.25;60.40
75086;BME280;63663;0.000;0.000;2022-11-25T06:59:03;100492.16;;;10.30;59.75
75086;BME280;63663;0.000;0.000;2022-11-25T07:01:28;100495.41;;;10.27;59.82
75086;BME280;63663;0.000;0.000;2022-11-25T07:03:58;100498.41;;;10.21;60.19
75086;BME280;63663;0.000;0.000;2022-11-25T07:06:23;100508.22;;;10.22;60.35
75086;BME280;63663;0.000;0.000;2022-11-25T07:08:48;100503.31;;;10.24;60.07
75086;BME280;63663;0.000;0.000;2022-11-25T07:13:45;100514.19;;;10.24;60.38
75086;BME280;63663;0.000;0.000;2022-11-25T07:16:11;100519.03;;;10.16;60.49
75086;BME280;63663;0.000;0.000;2022-11-25T07:18:37;100525.88;;;10.14;60.29
75086;BME280;63663;0.000;0.000;2022-11-25T07:21:07;100524.78;;;10.15;60.52
75086;BME280;63663;0.000;0.000;2022-11-25T07:23:32;100522.09;;;10.25;60.56
75086;BME280;63663;0.000;0.000;2022-11-25T07:26:02;100535.16;;;10.23;59.94
75086;BME280;63663;0.000;0.000;2022-11-25T07:28:27;100527.78;;;10.19;60.58
75086;BME280;63663;0.000;0.000;2022-11-25T07:30:53;100534.59;;;10.21;60.33
75086;BME280;63663;0.000;0.000;2022-11-25T07:33:18;100541.13;;;10.20;60.96
75086;BME280;63663;0.000;0.000;2022-11-25T07:35:43;100543.56;;;10.22;60.67
75086;BME280;63663;0.000;0.000;2022-11-25T07:38:08;100546.00;;;10.18;60.57
75086;BME280;63663;0.000;0.000;2022-11-25T07:40:33;100554.16;;;10.18;60.48
75086;BME280;63663;0.000;0.000;2022-11-25T07:42:58;100556.34;;;10.21;60.47
75086;BME280;63663;0.000;0.000;2022-11-25T07:45:23;100550.66;;;10.23;61.42
75086;BME280;63663;0.000;0.000;2022-11-25T07:47:49;100563.97;;;10.19;60.50
75086;BME280;63663;0.000;0.000;2022-11-25T07:50:14;100565.34;;;10.22;61.14
75086;BME280;63663;0.000;0.000;2022-11-25T07:52:39;100573.78;;;10.25;60.96
75086;BME280;63663;0.000;0.000;2022-11-25T07:55:04;100573.75;;;10.20;60.93
75086;BME280;63663;0.000;0.000;2022-11-25T07:57:29;100574.03;;;10.29;60.94
75086;BME280;63663;0.000;0.000;2022-11-25T07:59:55;100572.41;;;10.28;60.25
75086;BME280;63663;0.000;0.000;2022-11-25T08:02:20;100567.78;;;10.23;60.88
75086;BME280;63663;0.000;0.000;2022-11-25T08:04:45;100570.25;;;10.25;60.59
75086;BME280;63663;0.000;0.000;2022-11-25T08:07:10;100575.41;;;10.21;60.61
75086;BME280;63663;0.000;0.000;2022-11-25T08:09:35;100575.66;;;10.20;61.05
75086;BME280;63663;0.000;0.000;2022-11-25T08:12:01;100576.50;;;10.25;60.73
75086;BME280;63663;0.000;0.000;2022-11-25T08:14:26;100580.28;;;10.19;60.92
75086;BME280;63663;0.000;0.000;2022-11-25T08:16:51;100576.22;;;10.22;60.71
75086;BME280;63663;0.000;0.000;2022-11-25T08:19:17;100585.13;;;10.17;61.04
75086;BME280;63663;0.000;0.000;2022-11-25T08:21:43;100588.19;;;10.21;61.16
75086;BME280;63663;0.000;0.000;2022-11-25T08:24:14;100589.53;;;10.18;60.94
75086;BME280;63663;0.000;0.000;2022-11-25T08:26:40;100593.06;;;10.19;61.71
75086;BME280;63663;0.000;0.000;2022-11-25T08:29:05;100599.88;;;10.21;61.01
75086;BME280;63663;0.000;0.000;2022-11-25T08:31:32;100599.06;;;10.21;62.08
75086;BME280;63663;0.000;0.000;2022-11-25T08:33:57;100606.13;;;10.22;61.32
75086;BME280;63663;0.000;0.000;2022-11-25T08:36:23;100616.50;;;10.25;61.54
75086;BME280;63663;0.000;0.000;2022-11-25T08:38:50;100612.41;;;10.22;61.67
75086;BME280;63663;0.000;0.000;2022-11-25T08:41:17;100624.38;;;10.21;61.48
75086;BME280;63663;0.000;0.000;2022-11-25T08:43:42;100620.00;;;10.20;61.24
75086;BME280;63663;0.000;0.000;2022-11-25T08:46:09;100626.25;;;10.21;61.46
75086;BME280;63663;0.000;0.000;2022-11-25T08:48:34;100626.53;;;10.19;61.88
75086;BME280;63663;0.000;0.000;2022-11-25T08:50:59;100633.88;;;10.19;61.17
75086;BME280;63663;0.000;0.000;2022-11-25T08:53:24;100626.53;;;10.19;61.39
75086;BME280;63663;0.000;0.000;2022-11-25T08:55:50;100634.69;;;10.19;61.73
75086;BME280;63663;0.000;0.000;2022-11-25T08:58:15;100628.16;;;10.20;62.11
75086;BME280;63663;0.000;0.000;2022-11-25T09:00:41;100637.16;;;10.21;61.24
75086;BME280;63663;0.000;0.000;2022-11-25T09:03:06;100627.63;;;10.23;62.04
75086;BME280;63663;0.000;0.000;2022-11-25T09:05:31;100629.81;;;10.21;61.05
75086;BME280;63663;0.000;0.000;2022-11-25T09:07:57;100639.59;;;10.22;61.45
75086;BME280;63663;0.000;0.000;2022-11-25T09:10:22;100652.38;;;10.22;61.72
75086;BME280;63663;0.000;0.000;2022-11-25T09:12:47;100650.47;;;10.22;61.36
75086;BME280;63663;0.000;0.000;2022-11-25T09:15:12;100657.84;;;10.27;61.13
75086;BME280;63663;0.000;0.000;2022-11-25T09:17:37;100658.13;;;10.25;62.35
75086;BME280;63663;0.000;0.000;2022-11-25T09:20:03;100652.94;;;10.24;61.22
75086;BME280;63663;0.000;0.000;2022-11-25T09:22:29;100663.28;;;10.27;61.42
75086;BME280;63663;0.000;0.000;2022-11-25T09:24:54;100664.91;;;10.23;62.26
75086;BME280;63663;0.000;0.000;2022-11-25T09:27:19;100667.34;;;10.24;62.26
75086;BME280;63663;0.000;0.000;2022-11-25T09:29:45;100673.06;;;10.23;61.37
75086;BME280;63663;0.000;0.000;2022-11-25T09:32:10;100674.69;;;10.24;62.29
75086;BME280;63663;0.000;0.000;2022-11-25T09:34:35;100678.25;;;10.24;62.15
75086;BME280;63663;0.000;0.000;2022-11-25T09:37:00;100680.97;;;10.24;62.26
75086;BME280;63663;0.000;0.000;2022-11-25T09:39:25;100676.59;;;10.23;61.71
75086;BME280;63663;0.000;0.000;2022-11-25T09:52:18;100679.31;;;10.28;62.37
75086;BME280;63663;0.000;0.000;2022-11-25T09:54:48;100678.78;;;10.26;62.32
75086;BME280;63663;0.000;0.000;2022-11-25T09:57:59;100680.41;;;10.27;62.05
75086;BME280;63663;0.000;0.000;2022-11-25T10:02:34;100679.88;;;10.30;62.87
75086;BME280;63663;0.000;0.000;2022-11-25T10:07:33;100678.50;;;10.28;62.26
75086;BME280;63663;0.000;0.000;2022-11-25T10:10:00;100680.41;;;10.27;62.66
75086;BME280;63663;0.000;0.000;2022-11-25T10:12:28;100688.56;;;10.27;62.58
75086;BME280;63663;0.000;0.000;2022-11-25T10:14:58;100679.88;;;10.30;61.86
75086;BME280;63663;0.000;0.000;2022-11-25T10:22:38;100684.50;;;10.30;62.02
75086;BME280;63663;0.000;0.000;2022-11-25T10:25:14;100682.84;;;10.29;61.56
75086;BME280;63663;0.000;0.000;2022-11-25T10:27:42;100685.31;;;10.30;61.80
75086;BME280;63663;0.000;0.000;2022-11-25T10:30:16;100683.97;;;10.33;61.68
75086;BME280;63663;0.000;0.000;2022-11-25T10:32:52;100691.31;;;10.32;62.70
75086;BME280;63663;0.000;0.000;2022-11-25T10:35:19;100686.94;;;10.31;62.82
75086;BME280;63663;0.000;0.000;2022-11-25T10:37:45;100692.69;;;10.35;61.74
75086;BME280;63663;0.000;0.000;2022-11-25T10:40:14;100694.06;;;10.37;62.36
75086;BME280;63663;0.000;0.000;2022-11-25T10:42:39;100700.28;;;10.33;63.15
75086;BME280;63663;0.000;0.000;2022-11-25T10:45:04;100705.47;;;10.34;62.11
75086;BME280;63663;0.000;0.000;2022-11-25T10:47:34;100714.19;;;10.36;62.65
75086;BME280;63663;0.000;0.000;2022-11-25T10:52:29;100710.38;;;10.37;61.84
75086;BME280;63663;0.000;0.000;2022-11-25T10:54:56;100713.38;;;10.36;62.45
75086;BME280;63663;0.000;0.000;2022-11-25T10:57:21;100705.47;;;10.39;62.74
75086;BME280;63663;0.000;0.000;2022-11-25T10:59:57;100703.56;;;10.40;62.68
75086;BME280;63663;0.000;0.000;2022-11-25T11:02:27;100708.50;;;10.38;62.52
75086;BME280;63663;0.000;0.000;2022-11-25T11:07:40;100711.22;;;10.53;62.00
75086;BME280;63663;0.000;0.000;2022-11-25T11:10:24;100711.78;;;10.55;62.08
75086;BME280;63663;0.000;0.000;2022-11-25T11:12:52;100710.69;;;10.56;61.28
75086;BME280;63663;0.000;0.000;2022-11-25T11:15:23;100715.03;;;10.47;61.95
75086;BME280;63663;0.000;0.000;2022-11-25T11:17:48;100706.59;;;10.53;61.54
75086;BME280;63663;0.000;0.000;2022-11-25T11:23:12;100709.06;;;10.65;60.62
75086;BME280;63663;0.000;0.000;2022-11-25T11:25:31;100719.41;;;10.63;60.82
75086;BME280;63663;0.000;0.000;2022-11-25T11:27:57;100718.88;;;10.61;60.82
75086;BME280;63663;0.000;0.000;2022-11-25T11:30:27;100722.69;;;10.65;61.29
75086;BME280;63663;0.000;0.000;2022-11-25T11:32:53;100722.13;;;10.53;61.74
75086;BME280;63663;0.000;0.000;2022-11-25T11:35:20;100724.56;;;10.55;60.82
75086;BME280;63663;0.000;0.000;2022-11-25T11:37:49;100728.13;;;10.55;61.50
75086;BME280;63663;0.000;0.000;2022-11-25T11:42:51;100732.75;;;10.49;61.51
75086;BME280;63663;0.000;0.000;2022-11-25T11:48:37;100732.75;;;10.65;61.31
75086;BME280;63663;0.000;0.000;2022-11-25T11:53:19;100738.47;;;10.63;61.16
75086;BME280;63663;0.000;0.000;2022-11-25T11:58:28;100743.63;;;10.55;61.64
75086;BME280;63663;0.000;0.000;2022-11-25T12:03:55;100750.75;;;10.61;61.15
75086;BME280;63663;0.000;0.000;2022-11-25T12:06:22;100759.47;;;10.78;61.64
75086;BME280;63663;0.000;0.000;2022-11-25T12:08:50;100760.81;;;10.70;61.72
75086;BME280;63663;0.000;0.000;2022-11-25T12:11:21;100771.16;;;10.68;61.81
75086;BME280;63663;0.000;0.000;2022-11-25T12:13:59;100769.78;;;10.66;61.74
75086;BME280;63663;0.000;0.000;2022-11-25T12:16:30;100774.69;;;10.69;62.58
75086;BME280;63663;0.000;0.000;2022-11-25T12:21:57;100766.28;;;10.70;61.53
75086;BME280;63663;0.000;0.000;2022-11-25T12:24:23;100768.16;;;10.75;61.62
75086;BME280;63663;0.000;0.000;2022-11-25T12:27:10;100770.63;;;10.76;61.84
75086;BME280;63663;0.000;0.000;2022-11-25T12:34:52;100776.91;;;10.82;61.91
75086;BME280;63663;0.000;0.000;2022-11-25T12:37:33;100787.81;;;10.82;61.72
75086;BME280;63663;0.000;0.000;2022-11-25T12:40:08;100789.41;;;10.78;61.97
75086;BME280;63663;0.000;0.000;2022-11-25T12:42:38;100788.91;;;10.81;61.73
75086;BME280;63663;0.000;0.000;2022-11-25T12:45:06;100780.19;;;10.84;62.12
75086;BME280;63663;0.000;0.000;2022-11-25T12:47:35;100782.91;;;10.89;62.12
75086;BME280;63663;0.000;0.000;2022-11-25T12:50:00;100790.25;;;10.88;61.92
75086;BME280;63663;0.000;0.000;2022-11-25T12:55:13;100780.72;;;10.86;62.79
75086;BME280;63663;0.000;0.000;2022-11-25T13:00:22;100787.53;;;10.88;62.02
75086;BME280;63663;0.000;0.000;2022-11-25T13:13:01;100805.25;;;10.91;62.50
75086;BME280;63663;0.000;0.000;2022-11-25T13:15:29;100813.97;;;10.93;62.43
75086;BME280;63663;0.000;0.000;2022-11-25T13:18:08;100809.31;;;10.88;62.52
75086;BME280;63663;0.000;0.000;2022-11-25T13:20:37;100812.91;;;10.94;62.81
75086;BME280;63663;0.000;0.000;2022-11-25T13:25:28;100823.22;;;10.97;62.45
75086;BME280;63663;0.000;0.000;2022-11-25T13:32:56;100831.97;;;10.99;62.71
75086;BME280;63663;0.000;0.000;2022-11-25T13:37:47;100840.13;;;10.99;62.57
75086;BME280;63663;0.000;0.000;2022-11-25T13:42:47;100849.69;;;11.07;62.02
75086;BME280;63663;0.000;0.000;2022-11-25T13:45:29;100852.94;;;10.99;62.37
75086;BME280;63663;0.000;0.000;2022-11-25T13:48:03;100838.25;;;11.05;61.94
75086;BME280;63663;0.000;0.000;2022-11-25T13:50:28;100847.22;;;11.00;62.01
75086;BME280;63663;0.000;0.000;2022-11-25T13:58:06;100860.31;;;11.08;61.91
75086;BME280;63663;0.000;0.000;2022-11-25T14:03:42;100865.50;;;11.05;62.21
75086;BME280;63663;0.000;0.000;2022-11-25T14:08:54;100873.94;;;11.08;63.13
75086;BME280;63663;0.000;0.000;2022-11-25T14:11:39;100876.94;;;11.07;62.79
75086;BME280;63663;0.000;0.000;2022-11-25T14:14:57;100888.66;;;11.12;62.11
75086;BME280;63663;0.000;0.000;2022-11-25T14:19:40;100885.38;;;11.10;62.40
75086;BME280;63663;0.000;0.000;2022-11-25T14:24:54;100887.03;;;11.06;62.87
75086;BME280;63663;0.000;0.000;2022-11-25T14:27:25;100887.84;;;11.07;63.01
75086;BME280;63663;0.000;0.000;2022-11-25T14:29:51;100887.00;;;11.11;62.22
75086;BME280;63663;0.000;0.000;2022-11-25T14:34:57;100887.84;;;11.12;63.48
75086;BME280;63663;0.000;0.000;2022-11-25T14:42:35;100906.66;;;11.18;62.52
75086;BME280;63663;0.000;0.000;2022-11-25T14:45:02;100911.56;;;11.21;62.36
75086;BME280;63663;0.000;0.000;2022-11-25T14:47:29;100913.72;;;11.19;62.66